SASJ/JUJ METAR and TAF weather

Enter ICAO airport designator
Station Type Date Time Source
SASJ METAR 2019/04/21 22:00 UTC NOAA

SASJ 212200Z 05009KT 9999 FEW020 BKN100 23/21 Q1012


Station Type Date Time Source
SASJ Decoded METAR 2019/04/21 22:00 UTC NOAA

Jujuy Aerodrome, Argentina (SASJ) 24-23S 065-05W 905M
Apr 21, 2019 - 06:00 PM EDT / 2019.04.21 2200 UTC
Wind: from the NE (050 degrees) at 10 MPH (9 KT):0
Visibility: greater than 7 mile(s):0
Sky conditions: mostly cloudy
Temperature: 73 F (23 C)
Dew Point: 69 F (21 C)
Relative Humidity: 88%
Pressure (altimeter): 29.88 in. Hg (1012 hPa)
ob: SASJ 212200Z 05009KT 9999 FEW020 BKN100 23/21 Q1012
cycle: 22

Station Type Date Time Source
SASJ TAF 2019/04/21 18:06 UTC NOAA

TAF COR SASJ 211700Z 2118/2218 18005KT 9999 BKN030 TX20/2219Z TN26/2210Z
BECMG 2121/2100 16010KT 7000 DZ SCT010 BKN030

Example: see airport list